createdAt,value
2018-02-03T00:01:11.206Z,74.71
2018-02-03T00:03:41.067Z,74.99
2018-02-03T00:06:10.145Z,75.13
2018-02-03T00:08:39.258Z,75.46
2018-02-03T00:11:09.137Z,75.75
2018-02-03T00:13:39.031Z,75.86
2018-02-03T00:16:08.117Z,76.02
2018-02-03T00:18:37.252Z,75.98
2018-02-03T00:21:06.388Z,75.51
2018-02-03T00:23:35.469Z,75.50
2018-02-03T00:26:05.333Z,76.19
2018-02-03T00:28:34.419Z,76.30
2018-02-03T00:31:03.512Z,76.20
2018-02-03T00:33:32.614Z,76.32
2018-02-03T00:36:01.708Z,76.24
2018-02-03T00:38:30.812Z,76.32
2018-02-03T00:41:00.849Z,76.35
2018-02-03T00:43:29.935Z,76.50
2018-02-03T00:45:59.039Z,76.65
2018-02-03T00:48:28.123Z,76.65
2018-02-03T00:50:57.994Z,76.63
2018-02-03T00:53:27.825Z,76.69
2018-02-03T00:55:56.950Z,76.46
2018-02-03T00:58:26.029Z,76.49
2018-02-03T01:00:55.137Z,76.41
2018-02-03T01:03:24.225Z,76.61
2018-02-03T01:05:53.294Z,76.29
2018-02-03T01:08:22.397Z,76.35
2018-02-03T01:10:51.491Z,75.82
2018-02-03T01:13:20.587Z,75.65
2018-02-03T01:15:49.662Z,75.88
2018-02-03T01:18:19.537Z,75.85
2018-02-03T01:20:49.394Z,75.78
2018-02-03T01:23:18.482Z,75.81
2018-02-03T01:25:49.085Z,75.84
2018-02-03T01:28:18.195Z,75.34
2018-02-03T01:30:47.322Z,74.70
2018-02-03T01:33:16.423Z,75.15
2018-02-03T01:35:45.511Z,74.92
2018-02-03T01:38:14.613Z,74.96
2018-02-03T01:40:43.713Z,74.83
2018-02-03T01:43:12.829Z,75.01
2018-02-03T01:45:42.215Z,74.79
2018-02-03T01:48:11.316Z,74.83
2018-02-03T01:50:40.422Z,75.07
2018-02-03T01:53:09.534Z,74.75
2018-02-03T01:55:38.618Z,74.95
2018-02-03T01:58:07.745Z,74.89
2018-02-03T02:00:36.838Z,75.04
2018-02-03T02:03:05.925Z,74.71
2018-02-03T02:05:35.054Z,75.02
2018-02-03T02:08:04.916Z,74.93
2018-02-03T02:10:34.040Z,75.37
2018-02-03T02:13:03.116Z,75.46
2018-02-03T02:15:32.407Z,75.29
2018-02-03T02:18:01.513Z,74.90
2018-02-03T02:20:30.617Z,74.84
2018-02-03T02:22:59.713Z,75.06
2018-02-03T02:25:28.804Z,74.98
2018-02-03T02:27:58.466Z,74.98
2018-02-03T02:30:28.296Z,75.18
2018-02-03T02:32:57.412Z,75.49
2018-02-03T02:35:26.510Z,75.74
2018-02-03T02:37:55.581Z,75.87
2018-02-03T02:40:24.688Z,75.66
2018-02-03T02:42:53.795Z,75.64
2018-02-03T02:45:22.921Z,75.53
2018-02-03T02:47:52.006Z,75.05
2018-02-03T02:50:21.138Z,74.97
2018-02-03T02:52:51.020Z,75.01
2018-02-03T02:55:20.122Z,74.78
2018-02-03T02:57:49.212Z,74.60
2018-02-03T03:00:18.335Z,75.04
2018-02-03T03:02:48.185Z,75.71
2018-02-03T03:05:17.280Z,75.98
2018-02-03T03:07:46.356Z,76.81
2018-02-03T03:10:15.466Z,77.65
2018-02-03T03:12:44.543Z,77.87
2018-02-03T03:15:14.403Z,78.47
2018-02-03T03:17:45.117Z,78.51
2018-02-03T03:20:14.209Z,79.55
2018-02-03T03:22:43.331Z,79.43
2018-02-03T03:25:13.209Z,79.54
2018-02-03T03:27:42.304Z,79.50
2018-02-03T03:30:11.380Z,79.49
2018-02-03T03:32:41.974Z,79.84
2018-02-03T03:35:11.057Z,79.65
2018-02-03T03:37:40.181Z,79.50
2018-02-03T03:40:09.281Z,79.66
2018-02-03T03:42:39.146Z,79.35
2018-02-03T03:45:08.244Z,79.52
2018-02-03T03:47:37.329Z,79.19
2018-02-03T03:50:06.435Z,79.30
2018-02-03T03:52:35.525Z,78.94
2018-02-03T03:55:04.617Z,79.04
2018-02-03T03:57:33.722Z,78.70
2018-02-03T04:00:02.822Z,78.30
2018-02-03T04:02:31.908Z,78.28
2018-02-03T04:05:01.030Z,78.21
2018-02-03T04:07:30.101Z,78.38
2018-02-03T04:09:59.206Z,78.51
2018-02-03T04:12:28.349Z,78.16
2018-02-03T04:14:58.214Z,79.07
2018-02-03T04:17:27.293Z,79.53
2018-02-03T04:19:57.161Z,78.70
2018-02-03T04:22:26.281Z,78.75
2018-02-03T04:24:56.143Z,78.11
2018-02-03T04:27:25.250Z,77.76
2018-02-03T04:29:54.346Z,78.17
2018-02-03T04:32:23.436Z,78.96
2018-02-03T04:34:52.531Z,79.60
2018-02-03T04:37:21.637Z,79.28
2018-02-03T04:39:50.718Z,79.42
2018-02-03T04:42:19.833Z,79.02
2018-02-03T04:44:48.941Z,79.69
2018-02-03T04:47:18.037Z,78.88
2018-02-03T04:49:47.161Z,79.06
2018-02-03T04:52:16.994Z,78.71
2018-02-03T04:54:46.870Z,78.34
2018-02-03T04:57:15.958Z,78.46
2018-02-03T04:59:45.052Z,79.25
2018-02-03T05:02:14.173Z,79.49
2018-02-03T05:04:44.021Z,79.53
2018-02-03T05:07:13.127Z,78.90
2018-02-03T05:09:42.241Z,79.22
2018-02-03T05:12:11.462Z,79.42
2018-02-03T05:14:42.076Z,79.29
2018-02-03T05:17:11.755Z,80.08
2018-02-03T05:19:40.878Z,79.68
2018-02-03T05:22:09.963Z,79.75
2018-02-03T05:24:39.952Z,79.77
2018-02-03T05:27:09.041Z,79.45
2018-02-03T05:29:38.143Z,79.44
2018-02-03T05:32:07.250Z,79.85
2018-02-03T05:34:36.330Z,79.81
2018-02-03T05:37:05.434Z,79.62
2018-02-03T05:39:34.531Z,79.86
2018-02-03T05:42:03.645Z,79.67
2018-02-03T05:44:33.489Z,79.76
2018-02-03T05:47:03.377Z,79.91
2018-02-03T05:49:32.467Z,79.80
2018-02-03T05:52:01.579Z,80.03
2018-02-03T05:54:31.460Z,79.48
2018-02-03T05:57:00.929Z,79.63
2018-02-03T05:59:30.780Z,79.33
2018-02-03T06:01:59.890Z,78.87
2018-02-03T06:04:29.018Z,79.14
2018-02-03T06:06:58.828Z,79.07
2018-02-03T06:09:28.036Z,78.80
2018-02-03T06:11:57.128Z,78.63
2018-02-03T06:14:26.214Z,78.57
2018-02-03T06:16:55.314Z,78.80
2018-02-03T06:19:24.421Z,79.06
2018-02-03T06:21:54.295Z,79.30
2018-02-03T06:24:23.402Z,79.13
2018-02-03T06:26:52.493Z,79.36
2018-02-03T06:29:21.601Z,79.30
2018-02-03T06:31:50.707Z,78.84
2018-02-03T06:34:19.812Z,78.56
2018-02-03T06:36:48.913Z,78.45
2018-02-03T06:39:18.001Z,78.22
2018-02-03T06:41:48.622Z,78.06
2018-02-03T06:44:17.717Z,78.14
2018-02-03T06:46:46.830Z,77.96
2018-02-03T06:49:16.722Z,77.92
2018-02-03T06:51:45.818Z,78.02
2018-02-03T06:54:14.950Z,78.05
2018-02-03T06:56:44.839Z,78.53
2018-02-03T06:59:13.931Z,78.70
2018-02-03T07:01:43.037Z,78.67
2018-02-03T07:04:12.128Z,78.79
2018-02-03T07:06:41.246Z,78.81
2018-02-03T07:09:11.109Z,79.15
2018-02-03T07:11:40.993Z,78.71
2018-02-03T07:14:10.073Z,78.76
2018-02-03T07:16:39.925Z,78.86
2018-02-03T07:19:09.042Z,78.52
2018-02-03T07:21:38.135Z,78.27
2018-02-03T07:24:07.257Z,78.50
2018-02-03T07:26:37.114Z,78.52
2018-02-03T07:29:06.233Z,78.08
2018-02-03T07:31:35.330Z,78.19
2018-02-03T07:34:04.424Z,78.22
2018-02-03T07:39:06.871Z,78.11
2018-02-03T07:41:36.769Z,78.31
2018-02-03T07:44:06.635Z,78.24
2018-02-03T07:46:35.781Z,78.01
2018-02-03T07:49:05.656Z,78.13
2018-02-03T07:51:35.540Z,78.02
2018-02-03T07:54:04.648Z,78.44
2018-02-03T07:56:34.510Z,78.26
2018-02-03T07:59:04.066Z,78.43
2018-02-03T08:01:33.182Z,78.63
2018-02-03T08:04:02.278Z,78.48
2018-02-03T08:06:31.383Z,78.71
2018-02-03T08:09:00.509Z,78.93
2018-02-03T08:11:30.373Z,78.87
2018-02-03T08:13:59.501Z,78.80
2018-02-03T08:16:28.600Z,78.60
2018-02-03T08:18:57.694Z,79.05
2018-02-03T08:21:26.822Z,78.93
2018-02-03T08:23:56.710Z,78.53
2018-02-03T08:26:25.815Z,78.70
2018-02-03T08:28:54.924Z,78.95
2018-02-03T08:31:24.029Z,78.83
2018-02-03T08:33:53.877Z,78.89
2018-02-03T08:36:22.988Z,78.47
2018-02-03T08:38:52.105Z,78.66
2018-02-03T08:41:21.979Z,78.21
2018-02-03T08:43:51.073Z,78.28
2018-02-03T08:46:20.166Z,78.50
2018-02-03T08:48:50.348Z,78.02
2018-02-03T08:51:19.446Z,77.99
2018-02-03T08:53:49.310Z,78.57
2018-02-03T08:56:18.403Z,78.74
2018-02-03T08:58:47.516Z,78.78
2018-02-03T09:01:16.623Z,78.52
2018-02-03T09:03:45.727Z,78.55
2018-02-03T09:06:14.825Z,78.62
2018-02-03T09:08:43.941Z,78.71
2018-02-03T09:11:13.022Z,78.58
2018-02-03T09:13:42.122Z,78.44
2018-02-03T09:16:12.014Z,78.67
2018-02-03T09:18:41.101Z,78.19
2018-02-03T09:21:10.231Z,78.18
2018-02-03T09:23:40.103Z,78.14
2018-02-03T09:26:09.216Z,78.38
2018-02-03T09:28:38.312Z,78.05
2018-02-03T09:31:07.434Z,78.06
2018-02-03T09:33:37.351Z,77.93
2018-02-03T09:36:06.464Z,77.86
2018-02-03T09:38:35.558Z,77.82
2018-02-03T09:41:05.451Z,77.69
2018-02-03T09:43:34.557Z,77.79
2018-02-03T09:46:04.427Z,78.03
2018-02-03T09:48:34.286Z,77.57
2018-02-03T09:51:04.216Z,77.35
2018-02-03T09:53:34.053Z,77.43
2018-02-03T09:56:03.178Z,77.42
2018-02-03T09:58:32.273Z,77.66
2018-02-03T10:01:01.644Z,77.86
2018-02-03T10:03:30.731Z,78.12
2018-02-03T10:05:59.845Z,78.15
2018-02-03T10:08:28.926Z,78.06
2018-02-03T10:10:58.040Z,77.87
2018-02-03T10:13:27.161Z,77.82
2018-02-03T10:15:57.712Z,77.87
2018-02-03T10:18:28.876Z,78.00
2018-02-03T10:21:00.487Z,77.78
2018-02-03T10:23:29.693Z,77.73
2018-02-03T10:25:59.505Z,77.46
2018-02-03T10:28:28.612Z,77.60
2018-02-03T10:30:57.714Z,77.58
2018-02-03T10:33:26.839Z,77.47
2018-02-03T10:35:56.698Z,77.43
2018-02-03T10:38:25.803Z,77.20
2018-02-03T10:40:54.929Z,76.72
2018-02-03T10:43:24.794Z,75.97
2018-02-03T10:45:53.923Z,75.76
2018-02-03T10:48:23.000Z,75.73
2018-02-03T10:50:52.122Z,75.08
2018-02-03T10:53:21.257Z,75.26
2018-02-03T10:55:50.346Z,75.01
2018-02-03T10:58:20.205Z,75.59
2018-02-03T11:00:50.856Z,75.15
2018-02-03T11:03:19.955Z,75.50
2018-02-03T11:05:49.040Z,75.38
2018-02-03T11:08:18.153Z,75.77
2018-02-03T11:10:48.034Z,75.56
2018-02-03T11:13:17.158Z,75.40
2018-02-03T11:15:46.265Z,74.92
2018-02-03T11:18:16.151Z,75.07
2018-02-03T11:20:45.280Z,75.62
2018-02-03T11:23:15.150Z,75.37
2018-02-03T11:25:44.280Z,75.14
2018-02-03T11:28:14.150Z,75.11
2018-02-03T11:30:43.286Z,75.50
2018-02-03T11:33:12.384Z,76.01
2018-02-03T11:35:41.502Z,75.72
2018-02-03T11:38:11.377Z,75.72
2018-02-03T11:40:40.479Z,75.55
2018-02-03T11:43:09.617Z,74.96
2018-02-03T11:45:39.465Z,75.50
2018-02-03T11:48:08.597Z,75.43
2018-02-03T11:50:37.673Z,75.39
2018-02-03T11:53:06.824Z,75.51
2018-02-03T11:55:35.908Z,75.04
2018-02-03T11:58:05.031Z,74.97
2018-02-03T12:00:34.130Z,74.58
2018-02-03T12:03:03.282Z,74.68
2018-02-03T12:05:32.386Z,74.41
2018-02-03T12:08:03.183Z,75.38
2018-02-03T12:10:32.291Z,75.08
2018-02-03T12:13:01.377Z,75.37
2018-02-03T12:15:30.503Z,74.57
2018-02-03T12:18:00.362Z,74.62
2018-02-03T12:20:29.490Z,73.38
2018-02-03T12:22:58.621Z,73.37
2018-02-03T12:25:28.458Z,73.20
2018-02-03T12:27:57.564Z,73.18
2018-02-03T12:30:26.689Z,73.07
2018-02-03T12:32:56.601Z,72.49
2018-02-03T12:35:25.703Z,72.28
2018-02-03T12:37:54.830Z,72.87
2018-02-03T12:40:23.939Z,72.82
2018-02-03T12:42:53.786Z,72.36
2018-02-03T12:45:22.900Z,71.89
2018-02-03T12:47:52.051Z,71.60
2018-02-03T12:50:21.151Z,71.85
2018-02-03T12:52:51.087Z,71.68
2018-02-03T12:55:20.209Z,71.77
2018-02-03T12:57:49.350Z,70.94
2018-02-03T13:00:18.459Z,71.42
2018-02-03T13:02:47.577Z,70.82
2018-02-03T13:05:16.673Z,70.37
2018-02-03T13:07:45.791Z,70.24
2018-02-03T13:10:14.880Z,69.79
2018-02-03T13:12:43.999Z,70.19
2018-02-03T13:15:13.120Z,70.02
2018-02-03T13:17:43.000Z,70.28
2018-02-03T13:20:12.141Z,70.32
2018-02-03T13:22:41.230Z,70.07
2018-02-03T13:25:10.349Z,69.83
2018-02-03T13:27:39.458Z,70.74
2018-02-03T13:30:09.134Z,71.19
2018-02-03T13:32:38.238Z,71.11
2018-02-03T13:35:07.334Z,71.27
2018-02-03T13:37:36.693Z,70.93
2018-02-03T13:40:05.817Z,70.98
2018-02-03T13:42:34.946Z,70.68
2018-02-03T13:45:04.804Z,70.33
2018-02-03T13:47:35.781Z,70.14
2018-02-03T13:50:05.688Z,70.18
2018-02-03T13:52:34.812Z,70.07
2018-02-03T13:55:03.936Z,70.20
2018-02-03T13:57:33.088Z,70.05
2018-02-03T14:00:02.196Z,70.14
2018-02-03T14:02:31.315Z,70.11
2018-02-03T14:05:01.199Z,69.88
2018-02-03T14:07:30.306Z,68.75
2018-02-03T14:09:59.487Z,69.34
2018-02-03T14:12:29.397Z,69.22
2018-02-03T14:14:58.571Z,68.94
2018-02-03T14:17:28.468Z,69.35
2018-02-03T14:19:57.568Z,69.52
2018-02-03T14:22:26.741Z,69.23
2018-02-03T14:25:02.962Z,69.73
2018-02-03T14:27:32.826Z,69.61
2018-02-03T14:30:02.825Z,70.66
2018-02-03T14:32:32.030Z,70.85
2018-02-03T14:35:01.123Z,72.43
2018-02-03T14:37:30.251Z,72.89
2018-02-03T14:39:59.343Z,74.29
2018-02-03T14:42:28.455Z,75.74
2018-02-03T14:44:57.568Z,75.97
2018-02-03T14:47:27.453Z,76.26
2018-02-03T14:49:56.556Z,75.91
2018-02-03T14:52:26.045Z,76.37
2018-02-03T14:54:55.167Z,76.26
2018-02-03T14:57:24.265Z,75.77
2018-02-03T14:59:54.185Z,75.52
2018-02-03T15:02:24.186Z,74.60
2018-02-03T15:04:53.304Z,75.18
2018-02-03T15:07:23.188Z,74.99
2018-02-03T15:09:52.304Z,74.72
2018-02-03T15:12:22.185Z,74.84
2018-02-03T15:14:51.325Z,74.38
2018-02-03T15:17:20.455Z,74.70
2018-02-03T15:19:49.588Z,74.90
2018-02-03T15:22:18.700Z,74.81
2018-02-03T15:24:48.573Z,74.82
2018-02-03T15:27:17.711Z,74.76
2018-02-03T15:29:46.808Z,74.40
2018-02-03T15:32:17.642Z,74.13
2018-02-03T15:34:46.919Z,74.41
2018-02-03T15:37:16.049Z,74.14
2018-02-03T15:39:45.935Z,74.50
2018-02-03T15:42:15.070Z,74.73
2018-02-03T15:44:44.919Z,74.70
2018-02-03T15:47:14.035Z,74.81
2018-02-03T15:49:43.206Z,74.92
2018-02-03T15:52:13.299Z,74.74
2018-02-03T15:54:43.018Z,74.39
2018-02-03T15:57:12.152Z,74.74
2018-02-03T15:59:41.263Z,75.04
2018-02-03T16:02:11.342Z,74.81
2018-02-03T16:04:40.438Z,74.22
2018-02-03T16:07:09.541Z,74.17
2018-02-03T16:09:38.654Z,73.99
2018-02-03T16:12:10.035Z,73.82
2018-02-03T16:14:39.957Z,73.71
2018-02-03T16:17:09.069Z,74.07
2018-02-03T16:19:38.196Z,74.37
2018-02-03T16:22:07.298Z,73.80
2018-02-03T16:24:37.360Z,73.82
2018-02-03T16:27:07.247Z,74.81
2018-02-03T16:29:36.368Z,75.29
2018-02-03T16:32:06.241Z,75.72
2018-02-03T16:34:35.378Z,76.21
2018-02-03T16:37:04.480Z,76.83
2018-02-03T16:39:33.582Z,76.90
2018-02-03T16:42:03.442Z,77.26
2018-02-03T16:44:32.578Z,77.81
2018-02-03T16:47:02.443Z,77.92
2018-02-03T16:49:31.555Z,77.99
2018-02-03T16:52:00.654Z,78.00
2018-02-03T16:54:29.786Z,77.76
2018-02-03T16:56:59.680Z,77.73
2018-02-03T16:59:28.802Z,77.94
2018-02-03T17:01:58.156Z,77.84
2018-02-03T17:04:27.258Z,78.23
2018-02-03T17:06:56.384Z,76.60
2018-02-03T17:09:25.876Z,75.20
2018-02-03T17:11:54.950Z,74.27
2018-02-03T17:14:24.083Z,73.75
2018-02-03T17:16:53.184Z,73.50
2018-02-03T17:19:23.074Z,73.33
2018-02-03T17:21:52.183Z,73.59
2018-02-03T17:24:21.323Z,74.51
2018-02-03T17:26:50.410Z,75.42
2018-02-03T17:29:19.519Z,74.51
2018-02-03T17:31:48.609Z,74.77
2018-02-03T17:34:17.695Z,73.05
2018-02-03T17:36:52.270Z,72.91
2018-02-03T17:39:21.386Z,73.11
2018-02-03T17:41:51.280Z,72.24
2018-02-03T17:44:20.369Z,72.67
2018-02-03T17:46:56.477Z,71.98
2018-02-03T17:49:27.005Z,72.39
2018-02-03T17:51:56.134Z,71.35
2018-02-03T17:54:25.290Z,70.86
2018-02-03T17:57:00.701Z,71.16
2018-02-03T17:59:29.810Z,70.84
2018-02-03T18:01:59.755Z,70.88
2018-02-03T18:04:29.615Z,70.73
2018-02-03T18:07:04.153Z,70.92
2018-02-03T18:09:33.237Z,70.95
2018-02-03T18:12:02.378Z,70.58
2018-02-03T18:14:32.254Z,70.87
2018-02-03T18:17:01.400Z,70.63
2018-02-03T18:19:31.280Z,70.75
2018-02-03T18:22:00.418Z,71.01
2018-02-03T18:24:30.310Z,70.29
2018-02-03T18:27:00.206Z,70.31
2018-02-03T18:29:32.067Z,70.19
2018-02-03T18:32:01.157Z,70.88
2018-02-03T18:34:30.290Z,70.84
2018-02-03T18:37:00.152Z,70.59
2018-02-03T18:39:29.276Z,70.58
2018-02-03T18:41:58.384Z,70.59
2018-02-03T18:44:28.274Z,70.78
2018-02-03T18:46:57.449Z,70.87
2018-02-03T18:49:26.567Z,70.66
2018-02-03T18:51:56.068Z,70.77
2018-02-03T18:54:25.201Z,71.24
2018-02-03T18:56:55.057Z,70.96
2018-02-03T18:59:24.183Z,70.83
2018-02-03T19:01:53.301Z,71.05
2018-02-03T19:04:23.180Z,71.17
2018-02-03T19:06:52.305Z,70.89
2018-02-03T19:09:21.410Z,71.52
2018-02-03T19:11:51.290Z,70.96
2018-02-03T19:14:20.394Z,71.72
2018-02-03T19:16:49.546Z,71.31
2018-02-03T19:19:18.628Z,71.04
2018-02-03T19:21:47.732Z,71.39
2018-02-03T19:24:16.874Z,71.05
2018-02-03T19:26:45.997Z,71.13
2018-02-03T19:29:15.901Z,71.50
2018-02-03T19:31:44.986Z,72.36
2018-02-03T19:34:14.904Z,72.27
2018-02-03T19:36:44.014Z,72.96
2018-02-03T19:39:13.873Z,72.82
2018-02-03T19:41:43.022Z,72.52
2018-02-03T19:44:12.168Z,71.90
2018-02-03T19:46:41.295Z,71.87
2018-02-03T19:49:10.411Z,71.59
2018-02-03T19:51:41.035Z,71.19
2018-02-03T19:54:10.938Z,71.13
2018-02-03T19:56:40.126Z,71.25
2018-02-03T19:59:09.474Z,71.08
2018-02-03T20:01:38.605Z,71.47
2018-02-03T20:04:07.725Z,71.48
2018-02-03T20:06:36.806Z,71.62
2018-02-03T20:09:06.712Z,71.36
2018-02-03T20:11:35.812Z,71.54
2018-02-03T20:14:04.958Z,71.25
2018-02-03T20:16:34.062Z,71.05
2018-02-03T20:19:05.866Z,70.84
2018-02-03T20:21:34.963Z,71.70
2018-02-03T20:24:04.897Z,72.14
2018-02-03T20:26:34.012Z,72.02
2018-02-03T20:29:03.145Z,72.39
2018-02-03T20:31:32.252Z,72.42
2018-02-03T20:34:01.408Z,72.91
2018-02-03T20:36:30.518Z,72.31
2018-02-03T20:39:00.402Z,71.89
2018-02-03T20:41:29.537Z,71.84
2018-02-03T20:44:00.156Z,71.75
2018-02-03T20:46:30.065Z,71.92
2018-02-03T20:48:59.172Z,72.43
2018-02-03T20:51:29.097Z,72.23
2018-02-03T20:53:58.182Z,72.77
2018-02-03T20:56:28.061Z,73.40
2018-02-03T20:58:57.190Z,73.61
2018-02-03T21:01:27.099Z,73.31
2018-02-03T21:03:57.031Z,73.47
2018-02-03T21:06:26.888Z,73.42
2018-02-03T21:08:56.004Z,72.85
2018-02-03T21:11:25.130Z,72.19
2018-02-03T21:13:55.022Z,72.21
2018-02-03T21:16:24.143Z,71.94
2018-02-03T21:18:54.025Z,72.27
2018-02-03T21:21:23.162Z,72.32
2018-02-03T21:23:52.284Z,72.07
2018-02-03T21:26:22.183Z,71.88
2018-02-03T21:28:51.301Z,72.48
2018-02-03T21:31:20.427Z,72.47
2018-02-03T21:33:49.506Z,72.68
2018-02-03T21:36:18.625Z,72.36
2018-02-03T21:38:49.251Z,72.38
2018-02-03T21:41:18.392Z,72.53
2018-02-03T21:43:47.501Z,72.69
2018-02-03T21:46:16.625Z,73.16
2018-02-03T21:48:45.753Z,72.72
2018-02-03T21:51:15.648Z,73.12
2018-02-03T21:53:44.796Z,73.01
2018-02-03T21:56:13.947Z,73.94
2018-02-03T21:58:43.057Z,73.27
2018-02-03T22:01:12.934Z,73.13
2018-02-03T22:03:42.063Z,73.54
2018-02-03T22:06:11.196Z,73.93
2018-02-03T22:08:40.313Z,74.59
2018-02-03T22:11:09.400Z,74.46
2018-02-03T22:13:38.527Z,74.84
2018-02-03T22:16:08.484Z,75.02
2018-02-03T22:18:38.374Z,75.29
2018-02-03T22:21:08.599Z,75.11
2018-02-03T22:23:37.720Z,74.67
2018-02-03T22:26:06.825Z,74.98
2018-02-03T22:28:35.926Z,74.63
2018-02-03T22:31:05.054Z,74.99
2018-02-03T22:33:34.143Z,75.22
2018-02-03T22:36:03.264Z,75.04
2018-02-03T22:38:33.579Z,75.42
2018-02-03T22:41:03.593Z,75.67
2018-02-03T22:43:32.681Z,74.94
2018-02-03T22:46:01.895Z,75.09
2018-02-03T22:48:30.974Z,75.20
2018-02-03T22:51:00.103Z,75.38
2018-02-03T22:53:29.204Z,75.32
2018-02-03T22:55:58.314Z,75.19
2018-02-03T22:58:28.171Z,75.56
2018-02-03T23:01:02.707Z,75.27
2018-02-03T23:03:31.837Z,75.40
2018-02-03T23:06:01.708Z,75.32
2018-02-03T23:08:32.497Z,75.79
2018-02-03T23:11:01.629Z,75.57
2018-02-03T23:13:30.749Z,76.05
2018-02-03T23:16:00.622Z,76.67
2018-02-03T23:18:29.719Z,76.27
2018-02-03T23:20:59.163Z,75.89
2018-02-03T23:23:28.290Z,76.19
2018-02-03T23:25:59.226Z,76.66
2018-02-03T23:28:28.379Z,76.71
2018-02-03T23:30:57.505Z,76.64
2018-02-03T23:33:26.613Z,76.99
2018-02-03T23:35:55.716Z,76.90
2018-02-03T23:41:00.827Z,77.29
2018-02-03T23:43:29.943Z,77.32
2018-02-03T23:45:59.055Z,77.76
2018-02-03T23:48:28.913Z,78.11
2018-02-03T23:50:58.049Z,77.96
2018-02-03T23:53:27.133Z,78.01
2018-02-03T23:55:56.279Z,78.26
2018-02-03T23:58:25.387Z,77.99
